Historyczne dane pomiarowe

Dodano dane terminowe – wersja testowa.

Dane z okresu 1951-2019

Wersja bazy: 1.34 [2019-03-16, lista zmian], aktualizacja planowana na 2019-04-15

Dane meteo z obszaru Polski uzyskane na podstawie danych udostępnionych przez Instytut Meteorologii i Gospodarki Wodnej – Państwowy Instytut Badawczy.

 

Wybierz Datę:    

       

TemperaturaWilgotnośćWiatrCiśnienieOpadyŚniegCzas trwania zjawisk
 Stacja t tx tn tng RH VA  wxwx mslp ppp RRR   cm mm wxwxwxwxwxwxwx
1961-08-14 14.9 20.1 10.7 7.3 78.3- 6.7 2.7---- 1.2------------
1961-08-13 14.7 18.7 11.1 7.3 73.3- 2.7 4.3---- 0.0------------
1961-08-12 16.3 23.0 13.6 10.4 82.5- 5.7 2.7---- 0.0------------
1961-08-11 16.1 17.5 14.7 14.0 91.0- 6.7 2.0---- 0.0------------
1961-08-10 17.7 24.3 13.1 10.4 79.3- 5.3 1.7---- 12.0------------
1961-08-09 18.2 23.3 14.2 8.6 74.3- 4.7 2.0---- 0.0------------
1961-08-08 16.4 19.6 12.0 9.9 79.3- 5.3 3.3---- 0.3------------
1961-08-07 15.0 18.0 12.8 11.4 89.8- 6.7 0.7---- 1.8------------
1961-08-06 20.0 27.3 15.3 11.6 71.3- 4.7 3.0---- 9.2------------
1961-08-05 17.2 20.8 13.0 12.3 76.5- 6.3 5.3---- 0.4------------
1961-08-04 14.0 17.6 10.5 8.6 84.5- 7.0 3.0---- 1.9------------
1961-08-03 15.0 19.9 12.5 10.6 84.8- 4.7 2.3---- 5.3------------
1961-08-02 17.2 21.4 13.4 11.6 75.3- 6.3 3.3---- 0.5------------
1961-08-01 14.7 17.2 13.8 13.1 90.8- 7.7 5.0---- 6.0------------
1961-07-31 15.4 18.1 13.8 14.1 89.3- 7.7 6.7---- 24.4------------
1961-07-30 16.0 18.5 11.6 7.3 84.5- 7.0 2.0---- 1.4------------
1961-07-29 15.0 18.9 11.7 9.4 74.0- 6.7 5.0---- 0.0------------
1961-07-28 14.3 16.2 13.0 10.4 86.5- 7.7 1.7---- 0.9------------
1961-07-27 16.7 20.3 14.8 13.6 74.5- 7.0 6.3---- 1.6------------
1961-07-26 18.0 21.0 13.7 11.9 70.0- 8.0 5.3---- 0.9------------
1961-07-25 15.1 17.6 12.0 8.8 70.5- 7.3 6.3---- 0.0------------
1961-07-24 14.9 19.3 12.5 10.4 74.5- 4.3 6.0---- 0.2------------
1961-07-23 15.2 19.1 13.7 11.7 78.8- 6.0 4.7---- 0.0------------
1961-07-22 15.6 19.7 13.4 11.9 82.0- 5.3 6.0---- 4.3------------
1961-07-21 15.4 19.7 12.2 8.5 87.5- 7.3 1.0---- 6.2------------
1961-07-20 16.6 21.4 11.8 9.5 78.8- 6.0 1.0---- 0.8------------
1961-07-19 15.9 20.2 13.0 10.8 83.3- 5.3 2.3---- 2.9------------
1961-07-18 15.3 18.6 12.8 12.2 84.5- 7.7 1.0---- 0.8------------
1961-07-17 17.2 22.7 11.9 8.3 76.5- 5.0 0.7---- 9.4------------
1961-07-16 15.2 17.4 10.5 5.6 87.0- 8.0 0.3---- 0.9------------
1961-07-15 16.2 20.6 12.8 9.6 80.5- 4.0 1.7---- 0.0------------
1961-07-14 15.3 18.9 14.1 13.0 79.5- 7.7 4.0---- 0.0------------
1961-07-13 19.9 25.8 13.6 10.5 85.0- 6.0 2.3---- 14.9------------
1961-07-12 17.5 23.0 13.3 12.2 80.3- 4.0 2.3---- 0.0------------
1961-07-11 15.8 20.1 11.1 8.9 69.5- 6.0 3.7---- 2.3------------
1961-07-10 14.9 18.2 11.7 9.8 73.0- 7.0 4.3---- 0.0------------
1961-07-09 15.5 19.7 12.5 10.9 81.8- 7.0 2.0---- 7.1------------
1961-07-08 15.1 20.3 10.3 6.7 79.8- 7.3 3.3---- 3.8------------
1961-07-07 13.0 17.0 10.4 8.3 79.5- 4.0 5.3---- 0.0------------
1961-07-06 12.5 15.3 8.9 5.6 77.3- 5.0 6.0---- 2.6------------
1961-07-05 13.3 18.1 12.0 10.8 70.8- 4.3 6.7---- 0.6------------
1961-07-04 17.1 20.6 13.5 10.4 71.8- 6.3 3.7---- 0.0------------
1961-07-03 23.8 33.1 18.8 14.1 55.5- 4.0 4.7---- 0.0------------
1961-07-02 21.6 25.4 11.7 5.7 57.8- 0.0 3.0---- 0.0------------
1961-07-01 17.3 21.7 10.1 6.7 73.3- 1.0 0.7---- 0.0------------
1961-06-30 18.6 23.8 13.2 8.5 56.3- 0.0 4.0---- 0.0------------
1961-06-29 16.3 20.3 13.1 10.3 67.8- 4.0 5.0---- 0.0------------
1961-06-28 15.2 19.8 13.8 12.9 54.3- 2.7 9.3---- 0.0------------
1961-06-27 21.7 29.6 15.1 10.4 72.0- 4.3 3.0---- 6.2------------
1961-06-26 19.3 25.5 15.2 13.4 65.8- 0.7 3.7---- 0.0------------
1961-06-25 21.9 27.5 15.4 12.0 49.3- 5.0 7.0---- 0.0------------
1961-06-24 17.8 21.7 13.9 12.3 53.8- 5.0 5.0---- 0.0------------
1961-06-23 18.0 21.5 11.9 7.0 60.3- 4.0 5.0---- 0.0------------
1961-06-22 16.3 21.3 8.8 7.0 62.0- 2.3 2.7---- 0.0------------
1961-06-21 13.5 20.0 11.8 8.6 71.5- 4.0 4.0---- 1.6------------
1961-06-20 14.4 18.6 10.8 7.6 56.5- 4.0 6.3---- 0.0------------
1961-06-19 15.6 19.6 12.8 11.0 57.0- 2.0 7.7---- 0.0------------
1961-06-18 20.3 26.9 17.1 15.8 69.3- 5.0 6.7---- 0.0------------
1961-06-17 18.7 22.6 13.5 12.4 66.8- 4.0 6.0---- 0.0------------
1961-06-16 14.7 16.2 12.4 11.3 77.3- 7.0 7.0---- 0.9------------
361.0 ms

 

Źródłem pochodzenia danych jest Instytut Meteorologii i Gospodarki Wodnej – Państwowy Instytut Badawczy. Dane Instytutu Meteorologii i Gospodarki Wodnej – Państwowego Instytutu Badawczego zostały przetworzone.

Dane źródłowe można odnaleźć na stronie https://dane.imgw.pl